createdAt,value
2019-03-08T00:00:07.313Z,0.00
2019-03-08T00:01:07.323Z,0.00
2019-03-08T00:02:07.349Z,0.00
2019-03-08T00:03:07.368Z,0.00
2019-03-08T00:04:07.397Z,0.00
2019-03-08T00:05:07.420Z,0.00
2019-03-08T00:06:07.447Z,0.00
2019-03-08T00:07:07.456Z,0.00
2019-03-08T00:08:07.492Z,0.00
2019-03-08T00:09:09.013Z,0.00
2019-03-08T00:10:08.384Z,0.00
2019-03-08T00:11:07.569Z,0.00
2019-03-08T00:12:07.614Z,0.00
2019-03-08T00:13:07.628Z,0.00
2019-03-08T00:14:07.618Z,0.00
2019-03-08T00:15:07.637Z,0.00
2019-03-08T00:16:07.656Z,0.00
2019-03-08T00:17:07.684Z,0.00
2019-03-08T00:18:07.702Z,0.00
2019-03-08T00:19:07.739Z,0.00
2019-03-08T00:20:07.743Z,0.00
2019-03-08T00:21:07.800Z,0.00
2019-03-08T00:22:07.791Z,0.00
2019-03-08T00:23:07.812Z,0.00
2019-03-08T00:24:07.835Z,0.00
2019-03-08T00:25:07.855Z,0.00
2019-03-08T00:26:07.887Z,0.00
2019-03-08T00:27:07.903Z,0.00
2019-03-08T00:28:07.927Z,0.00
2019-03-08T00:29:07.945Z,0.00
2019-03-08T00:30:07.969Z,0.00
2019-03-08T00:31:07.991Z,0.00
2019-03-08T00:32:08.019Z,0.00
2019-03-08T00:33:08.062Z,0.00
2019-03-08T00:34:08.060Z,0.00
2019-03-08T00:35:08.083Z,0.00
2019-03-08T00:36:08.128Z,0.00
2019-03-08T00:37:09.145Z,0.00
2019-03-08T00:38:08.142Z,0.00
2019-03-08T00:39:08.184Z,0.00
2019-03-08T00:40:08.196Z,0.00
2019-03-08T00:41:08.240Z,0.00
2019-03-08T00:42:08.234Z,0.00
2019-03-08T00:43:08.296Z,0.00
2019-03-08T00:44:08.280Z,0.00
2019-03-08T00:45:08.327Z,0.00
2019-03-08T00:46:08.326Z,0.00
2019-03-08T00:47:08.356Z,0.00
2019-03-08T00:48:08.364Z,0.00
2019-03-08T00:49:08.392Z,0.00
2019-03-08T00:50:08.417Z,0.00
2019-03-08T00:51:08.431Z,0.00
2019-03-08T00:52:08.454Z,0.00
2019-03-08T00:53:08.512Z,0.00
2019-03-08T00:54:08.505Z,0.00
2019-03-08T00:55:08.528Z,0.00
2019-03-08T00:56:08.559Z,0.00
2019-03-08T00:57:08.568Z,0.00
2019-03-08T00:58:08.596Z,0.00
2019-03-08T00:59:08.609Z,0.00
2019-03-08T01:00:08.637Z,0.00
2019-03-08T01:01:08.662Z,0.00
2019-03-08T01:02:08.680Z,0.00
2019-03-08T01:03:08.702Z,0.00
2019-03-08T01:04:08.720Z,0.00
2019-03-08T01:05:08.740Z,0.00
2019-03-08T01:06:08.768Z,0.00
2019-03-08T01:07:08.788Z,0.00
2019-03-08T01:08:08.816Z,0.00
2019-03-08T01:09:08.870Z,0.00
2019-03-08T01:10:08.852Z,0.00
2019-03-08T01:11:08.873Z,0.00
2019-03-08T01:12:08.904Z,0.00
2019-03-08T01:13:08.916Z,0.00
2019-03-08T01:14:08.943Z,0.00
2019-03-08T01:15:08.964Z,0.00
2019-03-08T01:16:08.990Z,0.00
2019-03-08T01:17:09.006Z,0.00
2019-03-08T01:18:09.025Z,0.00
2019-03-08T01:19:09.051Z,0.00
2019-03-08T01:20:09.097Z,0.00
2019-03-08T01:21:09.089Z,0.00
2019-03-08T01:22:09.113Z,0.00
2019-03-08T01:23:09.143Z,0.00
2019-03-08T01:24:09.157Z,0.00
2019-03-08T01:25:09.179Z,0.00
2019-03-08T01:26:09.211Z,0.00
2019-03-08T01:27:09.235Z,0.00
2019-03-08T01:28:09.249Z,0.00
2019-03-08T01:29:09.274Z,0.00
2019-03-08T01:30:09.290Z,0.00
2019-03-08T01:31:09.318Z,0.00
2019-03-08T01:32:09.338Z,0.00
2019-03-08T01:33:09.363Z,0.00
2019-03-08T01:34:09.379Z,0.00
2019-03-08T01:35:09.400Z,0.00
2019-03-08T01:36:09.415Z,0.00
2019-03-08T01:37:09.448Z,0.00
2019-03-08T01:38:09.464Z,0.00
2019-03-08T01:39:09.493Z,0.00
2019-03-08T01:40:09.514Z,0.00
2019-03-08T01:41:09.528Z,0.00
2019-03-08T01:42:09.553Z,0.00
2019-03-08T01:43:09.579Z,0.00
2019-03-08T01:44:09.596Z,0.00
2019-03-08T01:45:09.621Z,0.00
2019-03-08T01:46:09.659Z,0.00
2019-03-08T01:47:09.667Z,0.00
2019-03-08T01:48:09.680Z,0.00
2019-03-08T01:49:09.705Z,0.00
2019-03-08T01:50:09.725Z,0.00
2019-03-08T01:51:09.753Z,0.00
2019-03-08T01:52:09.775Z,0.00
2019-03-08T01:53:09.800Z,0.00
2019-03-08T01:54:09.811Z,0.00
2019-03-08T01:55:09.834Z,0.00
2019-03-08T01:56:09.860Z,0.00
2019-03-08T01:57:09.881Z,0.00
2019-03-08T01:58:09.903Z,0.00
2019-03-08T01:59:09.925Z,0.00
2019-03-08T02:00:10.801Z,0.00
2019-03-08T02:01:09.971Z,0.00
2019-03-08T02:02:10.530Z,0.00
2019-03-08T02:03:10.008Z,0.00
2019-03-08T02:04:10.033Z,0.00
2019-03-08T02:05:10.056Z,0.00
2019-03-08T02:06:10.114Z,0.00
2019-03-08T02:07:10.101Z,0.00
2019-03-08T02:08:10.113Z,0.00
2019-03-08T02:09:10.142Z,0.00
2019-03-08T02:10:10.172Z,0.00
2019-03-08T02:11:10.182Z,0.00
2019-03-08T02:12:10.218Z,0.00
2019-03-08T02:13:10.239Z,0.00
2019-03-08T02:14:10.263Z,0.00
2019-03-08T02:15:10.269Z,0.00
2019-03-08T02:16:10.287Z,0.00
2019-03-08T02:17:10.329Z,0.00
2019-03-08T02:18:10.338Z,0.00
2019-03-08T02:19:10.361Z,0.00
2019-03-08T02:20:10.378Z,0.00
2019-03-08T02:21:10.399Z,0.00
2019-03-08T02:22:10.421Z,0.00
2019-03-08T02:23:10.465Z,0.00
2019-03-08T02:24:10.471Z,0.00
2019-03-08T02:25:10.485Z,0.00
2019-03-08T02:26:10.514Z,0.00
2019-03-08T02:27:10.536Z,0.00
2019-03-08T02:28:10.549Z,0.00
2019-03-08T02:29:10.577Z,0.00
2019-03-08T02:30:10.593Z,0.00
2019-03-08T02:31:10.624Z,0.00
2019-03-08T02:32:10.642Z,0.00
2019-03-08T02:33:10.682Z,0.00
2019-03-08T02:34:10.700Z,0.00
2019-03-08T02:35:10.714Z,0.00
2019-03-08T02:36:10.730Z,0.00
2019-03-08T02:37:10.755Z,0.00
2019-03-08T02:38:10.785Z,0.00
2019-03-08T02:39:10.798Z,0.00
2019-03-08T02:40:10.855Z,0.00
2019-03-08T02:41:10.838Z,0.00
2019-03-08T02:42:10.859Z,0.00
2019-03-08T02:43:10.881Z,0.00
2019-03-08T02:44:10.897Z,0.00
2019-03-08T02:45:10.929Z,0.00
2019-03-08T02:46:10.940Z,0.00
2019-03-08T02:47:10.975Z,0.00
2019-03-08T02:48:10.989Z,0.00
2019-03-08T02:49:11.011Z,0.00
2019-03-08T02:50:11.029Z,0.00
2019-03-08T02:51:11.059Z,0.00
2019-03-08T02:52:11.076Z,0.00
2019-03-08T02:53:11.098Z,0.00
2019-03-08T02:54:11.133Z,0.00
2019-03-08T02:55:11.142Z,0.00
2019-03-08T02:56:11.172Z,0.00
2019-03-08T02:57:11.186Z,0.00
2019-03-08T02:58:11.200Z,0.00
2019-03-08T02:59:11.234Z,0.00
2019-03-08T03:00:11.252Z,0.00
2019-03-08T03:01:11.280Z,0.00
2019-03-08T03:02:11.288Z,0.00
2019-03-08T03:03:11.318Z,0.00
2019-03-08T03:04:11.336Z,0.00
2019-03-08T03:05:11.923Z,0.00
2019-03-08T03:06:11.386Z,0.00
2019-03-08T03:07:11.401Z,0.00
2019-03-08T03:08:11.434Z,0.00
2019-03-08T03:09:11.444Z,0.00
2019-03-08T03:10:11.479Z,0.00
2019-03-08T03:11:11.499Z,0.00
2019-03-08T03:12:11.509Z,0.00
2019-03-08T03:13:11.558Z,0.00
2019-03-08T03:14:11.556Z,0.00
2019-03-08T03:15:11.585Z,0.00
2019-03-08T03:16:11.597Z,0.00
2019-03-08T03:17:11.626Z,0.00
2019-03-08T03:18:12.619Z,0.00
2019-03-08T03:19:11.656Z,0.00
2019-03-08T03:20:11.684Z,0.00
2019-03-08T03:21:11.713Z,0.00
2019-03-08T03:22:11.722Z,0.00
2019-03-08T03:23:11.745Z,0.00
2019-03-08T03:24:11.779Z,0.00
2019-03-08T03:25:11.806Z,0.00
2019-03-08T03:26:11.806Z,0.00
2019-03-08T03:27:11.839Z,0.00
2019-03-08T03:28:11.869Z,0.00
2019-03-08T03:29:11.873Z,0.00
2019-03-08T03:30:11.902Z,0.00
2019-03-08T03:31:11.929Z,0.00
2019-03-08T03:32:11.952Z,0.00
2019-03-08T03:33:11.980Z,0.00
2019-03-08T03:34:11.982Z,0.00
2019-03-08T03:35:12.021Z,0.00
2019-03-08T03:36:12.027Z,0.00
2019-03-08T03:37:12.055Z,0.00
2019-03-08T03:38:12.065Z,0.00
2019-03-08T03:39:12.918Z,0.00
2019-03-08T03:40:12.115Z,0.00
2019-03-08T03:41:12.136Z,0.00
2019-03-08T03:42:12.169Z,0.00
2019-03-08T03:43:12.179Z,0.00
2019-03-08T03:44:12.209Z,0.00
2019-03-08T03:45:12.219Z,0.00
2019-03-08T03:46:12.243Z,0.00
2019-03-08T03:47:12.263Z,0.00
2019-03-08T03:48:12.281Z,0.00
2019-03-08T03:49:12.306Z,0.00
2019-03-08T03:50:12.330Z,0.00
2019-03-08T03:51:12.360Z,0.00
2019-03-08T03:52:12.370Z,0.00
2019-03-08T03:53:12.394Z,0.00
2019-03-08T03:54:12.924Z,0.00
2019-03-08T03:55:12.455Z,0.00
2019-03-08T03:56:12.464Z,0.00
2019-03-08T03:57:12.480Z,0.00
2019-03-08T03:58:12.507Z,0.00
2019-03-08T03:59:12.524Z,0.00
2019-03-08T04:00:12.550Z,0.00
2019-03-08T04:01:12.565Z,0.00
2019-03-08T04:02:12.593Z,0.00
2019-03-08T04:03:12.613Z,0.00
2019-03-08T04:04:12.633Z,0.00
2019-03-08T04:05:12.666Z,0.00
2019-03-08T04:06:12.673Z,0.00
2019-03-08T04:07:12.706Z,0.00
2019-03-08T04:08:12.759Z,0.00
2019-03-08T04:09:12.765Z,0.00
2019-03-08T04:10:12.768Z,0.00
2019-03-08T04:11:12.787Z,0.00
2019-03-08T04:12:12.806Z,0.00
2019-03-08T04:13:12.833Z,0.00
2019-03-08T04:14:12.854Z,0.00
2019-03-08T04:15:12.868Z,0.00
2019-03-08T04:16:12.898Z,0.00
2019-03-08T04:17:12.919Z,0.00
2019-03-08T04:18:12.938Z,0.00
2019-03-08T04:19:12.988Z,0.00
2019-03-08T04:20:12.988Z,0.00
2019-03-08T04:21:12.998Z,0.00
2019-03-08T04:22:13.030Z,0.00
2019-03-08T04:23:13.044Z,0.00
2019-03-08T04:24:13.079Z,0.00
2019-03-08T04:25:13.094Z,0.00
2019-03-08T04:26:13.113Z,0.00
2019-03-08T04:27:13.131Z,0.00
2019-03-08T04:28:13.156Z,0.00
2019-03-08T04:29:13.173Z,0.00
2019-03-08T04:30:13.241Z,0.00
2019-03-08T04:31:13.225Z,0.00
2019-03-08T04:32:13.236Z,0.00
2019-03-08T04:33:13.261Z,0.00
2019-03-08T04:34:13.287Z,0.00
2019-03-08T04:35:13.311Z,0.00
2019-03-08T04:36:13.329Z,0.00
2019-03-08T04:37:13.358Z,0.00
2019-03-08T04:38:13.378Z,0.00
2019-03-08T04:39:13.405Z,0.00
2019-03-08T04:40:13.411Z,0.00
2019-03-08T04:41:13.443Z,0.00
2019-03-08T04:42:13.472Z,0.00
2019-03-08T04:43:13.475Z,0.00
2019-03-08T04:44:13.554Z,0.00
2019-03-08T04:45:13.524Z,0.00
2019-03-08T04:46:13.540Z,0.00
2019-03-08T04:47:13.583Z,0.00
2019-03-08T04:48:13.587Z,0.00
2019-03-08T04:49:13.651Z,0.00
2019-03-08T04:50:13.652Z,0.00
2019-03-08T04:51:13.656Z,0.00
2019-03-08T04:52:13.684Z,0.00
2019-03-08T04:53:13.696Z,0.00
2019-03-08T04:54:13.716Z,0.00
2019-03-08T04:55:13.739Z,0.00
2019-03-08T04:56:13.766Z,0.00
2019-03-08T04:57:13.789Z,0.00
2019-03-08T04:58:13.800Z,0.00
2019-03-08T04:59:13.825Z,0.00
2019-03-08T05:00:13.847Z,0.00
2019-03-08T05:01:13.870Z,0.00
2019-03-08T05:02:13.894Z,0.00
2019-03-08T05:03:13.927Z,0.00
2019-03-08T05:04:13.932Z,0.00
2019-03-08T05:05:13.965Z,0.00
2019-03-08T05:06:13.985Z,0.00
2019-03-08T05:07:14.004Z,0.00
2019-03-08T05:08:14.023Z,0.00
2019-03-08T05:09:14.044Z,0.00
2019-03-08T05:10:14.065Z,0.00
2019-03-08T05:11:14.088Z,0.00
2019-03-08T05:12:14.116Z,0.00
2019-03-08T05:13:14.134Z,0.00
2019-03-08T05:14:14.153Z,0.00
2019-03-08T05:15:14.178Z,0.00
2019-03-08T05:16:14.203Z,0.00
2019-03-08T05:17:14.234Z,0.00
2019-03-08T05:18:14.242Z,0.00
2019-03-08T05:19:14.265Z,4.00
2019-03-08T05:20:14.291Z,4.00
2019-03-08T05:21:14.304Z,4.00
2019-03-08T05:22:14.330Z,4.00
2019-03-08T05:23:14.347Z,0.00
2019-03-08T05:24:14.383Z,0.00
2019-03-08T05:25:14.398Z,0.00
2019-03-08T05:26:14.412Z,4.00
2019-03-08T05:27:14.443Z,0.00
2019-03-08T05:28:14.461Z,0.00
2019-03-08T05:29:14.483Z,4.00
2019-03-08T05:30:14.501Z,4.00
2019-03-08T05:31:14.532Z,4.00
2019-03-08T05:32:14.545Z,4.00
2019-03-08T05:33:14.565Z,8.00
2019-03-08T05:34:14.587Z,8.00
2019-03-08T05:35:14.611Z,4.00
2019-03-08T05:36:14.633Z,4.00
2019-03-08T05:37:14.657Z,8.00
2019-03-08T05:38:14.707Z,8.00
2019-03-08T05:39:14.701Z,8.00
2019-03-08T05:40:14.724Z,8.00
2019-03-08T05:41:14.739Z,12.00
2019-03-08T05:42:14.760Z,8.00
2019-03-08T05:43:14.787Z,12.00
2019-03-08T05:44:14.812Z,12.00
2019-03-08T05:45:14.842Z,12.00
2019-03-08T05:46:14.848Z,12.00
2019-03-08T05:47:14.876Z,16.00
2019-03-08T05:48:14.899Z,12.00
2019-03-08T05:49:14.920Z,12.00
2019-03-08T05:50:14.935Z,16.00
2019-03-08T05:51:14.972Z,16.00
2019-03-08T05:52:14.978Z,12.00
2019-03-08T05:53:15.000Z,16.00
2019-03-08T05:54:15.018Z,12.00
2019-03-08T05:55:15.060Z,12.00
2019-03-08T05:56:15.071Z,16.00
2019-03-08T05:57:15.093Z,20.00
2019-03-08T05:58:15.112Z,24.00
2019-03-08T05:59:15.141Z,28.00
2019-03-08T06:00:15.158Z,24.00
2019-03-08T06:01:15.180Z,32.00
2019-03-08T06:02:15.209Z,28.00
2019-03-08T06:03:15.258Z,28.00
2019-03-08T06:04:15.274Z,24.00
2019-03-08T06:05:15.289Z,28.00
2019-03-08T06:06:15.295Z,32.00
2019-03-08T06:07:15.327Z,40.00
2019-03-08T06:08:15.337Z,40.00
2019-03-08T06:09:15.376Z,36.00
2019-03-08T06:10:15.404Z,44.00
2019-03-08T06:11:15.391Z,48.00
2019-03-08T06:12:15.420Z,52.00
2019-03-08T06:13:15.466Z,56.00
2019-03-08T06:14:15.469Z,52.00
2019-03-08T06:15:15.484Z,56.00
2019-03-08T06:16:16.442Z,92.00
2019-03-08T06:17:15.532Z,84.00
2019-03-08T06:18:15.551Z,68.00
2019-03-08T06:19:15.589Z,68.00
2019-03-08T06:20:15.630Z,96.00
2019-03-08T06:21:15.626Z,92.00
2019-03-08T06:22:15.636Z,88.00
2019-03-08T06:23:15.687Z,88.00
2019-03-08T06:24:15.685Z,92.00
2019-03-08T06:25:15.709Z,100.00
2019-03-08T06:26:15.734Z,112.00
2019-03-08T06:27:15.756Z,96.00
2019-03-08T06:28:15.767Z,76.00
2019-03-08T06:29:15.791Z,88.00
2019-03-08T06:30:15.816Z,124.00
2019-03-08T06:31:15.842Z,172.00
2019-03-08T06:32:15.873Z,156.00
2019-03-08T06:33:15.879Z,160.00
2019-03-08T06:34:15.913Z,164.00
2019-03-08T06:35:15.924Z,140.00
2019-03-08T06:36:15.950Z,112.00
2019-03-08T06:37:15.974Z,108.00
2019-03-08T06:38:16.058Z,144.00
2019-03-08T06:39:16.014Z,132.00
2019-03-08T06:40:16.036Z,132.00
2019-03-08T06:41:16.060Z,112.00
2019-03-08T06:42:16.079Z,124.00
2019-03-08T06:43:16.102Z,148.00
2019-03-08T06:44:16.130Z,128.00
2019-03-08T06:45:16.745Z,132.00
2019-03-08T06:46:16.165Z,136.00
2019-03-08T06:47:16.204Z,108.00
2019-03-08T06:48:16.214Z,100.00
2019-03-08T06:49:16.251Z,104.00
2019-03-08T06:50:16.260Z,104.00
2019-03-08T06:51:16.281Z,108.00
2019-03-08T06:52:16.305Z,80.00
2019-03-08T06:53:16.327Z,92.00
2019-03-08T06:54:16.349Z,100.00
2019-03-08T06:55:16.369Z,104.00
2019-03-08T06:56:16.387Z,116.00
2019-03-08T06:57:16.405Z,132.00
2019-03-08T06:58:16.434Z,124.00
2019-03-08T06:59:16.454Z,124.00
2019-03-08T07:00:16.483Z,112.00
2019-03-08T07:01:16.498Z,128.00
2019-03-08T07:02:16.517Z,124.00
2019-03-08T07:03:16.550Z,120.00
2019-03-08T07:04:16.564Z,112.00
2019-03-08T07:05:16.599Z,108.00
2019-03-08T07:06:16.603Z,88.00
2019-03-08T07:07:16.667Z,72.00
2019-03-08T07:08:16.650Z,72.00
2019-03-08T07:09:16.680Z,72.00
2019-03-08T07:10:16.701Z,88.00
2019-03-08T07:11:16.716Z,84.00
2019-03-08T07:12:16.752Z,84.00
2019-03-08T07:13:16.763Z,76.00
2019-03-08T07:14:16.785Z,100.00
2019-03-08T07:15:16.803Z,128.00
2019-03-08T07:16:16.835Z,124.00
2019-03-08T07:17:16.851Z,124.00
2019-03-08T07:18:16.871Z,132.00
2019-03-08T07:19:16.898Z,140.00
2019-03-08T07:20:16.930Z,140.00
2019-03-08T07:21:16.935Z,156.00
2019-03-08T07:22:16.961Z,168.00
2019-03-08T07:23:16.978Z,172.00
2019-03-08T07:24:17.005Z,196.00
2019-03-08T07:25:17.040Z,248.00
2019-03-08T07:26:17.046Z,296.00
2019-03-08T07:27:17.078Z,276.00
2019-03-08T07:28:17.151Z,240.00
2019-03-08T07:29:17.122Z,236.00
2019-03-08T07:30:17.138Z,244.00
2019-03-08T07:31:17.167Z,276.00
2019-03-08T07:32:17.640Z,272.00
2019-03-08T07:33:17.210Z,264.00
2019-03-08T07:34:17.221Z,228.00
2019-03-08T07:35:17.258Z,240.00
2019-03-08T07:36:17.296Z,248.00
2019-03-08T07:37:17.287Z,292.00
2019-03-08T07:38:17.316Z,264.00
2019-03-08T07:39:17.344Z,268.00
2019-03-08T07:40:17.352Z,276.00
2019-03-08T07:41:17.374Z,288.00
2019-03-08T07:42:17.394Z,300.00
2019-03-08T07:43:17.432Z,308.00
2019-03-08T07:44:17.445Z,292.00
2019-03-08T07:45:17.463Z,272.00
2019-03-08T07:46:17.495Z,268.00
2019-03-08T07:47:17.511Z,292.00
2019-03-08T07:48:17.529Z,316.00
2019-03-08T07:49:17.555Z,312.00
2019-03-08T07:50:17.582Z,296.00
2019-03-08T07:51:17.604Z,268.00
2019-03-08T07:52:17.618Z,252.00
2019-03-08T07:53:17.651Z,280.00
2019-03-08T07:54:17.682Z,348.00
2019-03-08T07:55:17.700Z,316.00
2019-03-08T07:56:17.710Z,368.00
2019-03-08T07:57:17.743Z,292.00
2019-03-08T07:58:17.765Z,284.00
2019-03-08T07:59:17.770Z,284.00
2019-03-08T08:00:17.798Z,316.00
2019-03-08T08:01:17.827Z,360.00
2019-03-08T08:02:17.844Z,368.00
2019-03-08T08:03:17.866Z,392.00
2019-03-08T08:04:17.889Z,392.00
2019-03-08T08:05:17.915Z,492.00
2019-03-08T08:06:17.932Z,472.00
2019-03-08T08:07:17.963Z,480.00
2019-03-08T08:08:17.978Z,444.00
2019-03-08T08:09:18.053Z,364.00
2019-03-08T08:10:18.021Z,344.00
2019-03-08T08:11:18.062Z,400.00
2019-03-08T08:12:18.063Z,492.00
2019-03-08T08:13:18.092Z,656.00
2019-03-08T08:14:18.150Z,628.00
2019-03-08T08:15:18.130Z,460.00
2019-03-08T08:16:18.154Z,636.00
2019-03-08T08:17:18.199Z,464.00
2019-03-08T08:18:18.227Z,516.00
2019-03-08T08:19:18.223Z,472.00
2019-03-08T08:20:18.250Z,352.00
2019-03-08T08:21:18.263Z,304.00
2019-03-08T08:22:18.284Z,232.00
2019-03-08T08:23:18.301Z,260.00
2019-03-08T08:24:18.340Z,256.00
2019-03-08T08:25:18.375Z,352.00
2019-03-08T08:26:18.418Z,348.00
2019-03-08T08:27:18.406Z,352.00
2019-03-08T08:28:18.421Z,368.00
2019-03-08T08:29:18.464Z,372.00
2019-03-08T08:30:18.467Z,304.00
2019-03-08T08:31:18.486Z,312.00
2019-03-08T08:32:18.542Z,384.00
2019-03-08T08:33:18.533Z,404.00
2019-03-08T08:34:18.569Z,480.00
2019-03-08T08:35:18.570Z,612.00
2019-03-08T08:36:18.591Z,552.00
2019-03-08T08:37:18.619Z,600.00
2019-03-08T08:38:18.645Z,640.00
2019-03-08T08:39:18.669Z,576.00
2019-03-08T08:40:18.687Z,608.00
2019-03-08T08:41:18.712Z,608.00
2019-03-08T08:42:18.795Z,476.00
2019-03-08T08:43:18.777Z,396.00
2019-03-08T08:44:18.774Z,520.00
2019-03-08T08:45:18.815Z,708.00
2019-03-08T08:46:18.822Z,576.00
2019-03-08T08:47:18.836Z,588.00
2019-03-08T08:48:18.908Z,744.00
2019-03-08T08:49:18.885Z,672.00
2019-03-08T08:50:18.904Z,428.00
2019-03-08T08:51:18.928Z,360.00
2019-03-08T08:52:18.956Z,380.00
2019-03-08T08:53:18.970Z,440.00
2019-03-08T08:54:19.010Z,444.00
2019-03-08T08:55:19.015Z,420.00
2019-03-08T08:56:19.035Z,284.00
2019-03-08T08:57:19.069Z,332.00
2019-03-08T08:58:19.089Z,424.00
2019-03-08T09:00:19.157Z,380.00
2019-03-08T09:01:19.154Z,336.00
2019-03-08T09:02:19.176Z,328.00
2019-03-08T09:04:19.217Z,312.00
2019-03-08T09:05:19.251Z,308.00
2019-03-08T09:06:19.259Z,332.00
2019-03-08T09:07:19.287Z,384.00
2019-03-08T09:08:19.311Z,348.00
2019-03-08T09:09:19.333Z,344.00
2019-03-08T09:10:19.354Z,296.00
2019-03-08T09:11:19.373Z,328.00
2019-03-08T09:12:19.422Z,336.00
2019-03-08T09:13:19.415Z,412.00
2019-03-08T09:14:19.446Z,368.00
2019-03-08T09:16:19.528Z,436.00
2019-03-08T09:17:19.553Z,380.00
2019-03-08T09:18:19.649Z,360.00
2019-03-08T09:19:19.601Z,360.00
2019-03-08T09:20:19.636Z,356.00
2019-03-08T09:21:19.655Z,372.00
2019-03-08T09:22:40.683Z,408.00
2019-03-08T09:23:19.690Z,372.00
2019-03-08T09:24:19.696Z,408.00
2019-03-08T09:25:19.738Z,452.00
2019-03-08T09:26:19.804Z,460.00
2019-03-08T09:27:19.763Z,584.00
2019-03-08T09:28:40.805Z,540.00
2019-03-08T09:29:19.912Z,396.00
2019-03-08T09:30:19.796Z,340.00
2019-03-08T09:31:19.820Z,360.00
2019-03-08T09:32:19.837Z,244.00
2019-03-08T09:33:19.860Z,192.00
2019-03-08T09:34:19.885Z,332.00
2019-03-08T09:35:19.905Z,348.00
2019-03-08T09:36:19.926Z,376.00
2019-03-08T09:37:19.951Z,324.00
2019-03-08T09:38:19.970Z,316.00
2019-03-08T09:39:19.993Z,308.00
2019-03-08T09:40:20.018Z,364.00
2019-03-08T09:41:20.037Z,376.00
2019-03-08T09:42:20.055Z,332.00
2019-03-08T09:43:20.081Z,380.00
2019-03-08T09:44:20.106Z,360.00
2019-03-08T09:45:20.132Z,384.00
2019-03-08T09:46:20.150Z,480.00
2019-03-08T09:47:20.168Z,412.00
2019-03-08T09:48:20.193Z,504.00
2019-03-08T09:49:20.219Z,608.00
2019-03-08T09:50:20.232Z,556.00
2019-03-08T09:51:20.257Z,536.00
2019-03-08T09:52:20.280Z,528.00
2019-03-08T09:53:20.308Z,444.00
2019-03-08T09:54:20.325Z,672.00
2019-03-08T09:55:20.348Z,576.00
2019-03-08T09:56:20.381Z,684.00
2019-03-08T09:57:20.389Z,520.00
2019-03-08T09:58:20.419Z,412.00
2019-03-08T09:59:20.434Z,384.00
2019-03-08T10:00:20.461Z,404.00
2019-03-08T10:01:20.479Z,412.00
2019-03-08T10:02:20.499Z,396.00
2019-03-08T10:03:20.530Z,284.00
2019-03-08T10:04:20.545Z,280.00
2019-03-08T10:05:20.574Z,252.00
2019-03-08T10:06:20.589Z,328.00
2019-03-08T10:07:20.613Z,328.00
2019-03-08T10:08:20.631Z,288.00
2019-03-08T10:09:20.656Z,320.00
2019-03-08T10:10:20.678Z,296.00
2019-03-08T10:11:20.698Z,332.00
2019-03-08T10:12:20.729Z,468.00
2019-03-08T10:13:20.739Z,388.00
2019-03-08T10:14:20.760Z,404.00
2019-03-08T10:15:20.790Z,384.00
2019-03-08T10:16:20.812Z,512.00
2019-03-08T10:17:20.853Z,524.00
2019-03-08T10:18:20.860Z,656.00
2019-03-08T10:19:20.884Z,876.00
2019-03-08T10:20:20.914Z,1180.00
2019-03-08T10:21:20.922Z,1132.00
2019-03-08T10:22:20.948Z,1068.00
2019-03-08T10:23:20.970Z,672.00
2019-03-08T10:24:20.993Z,924.00
2019-03-08T10:25:21.007Z,856.00
2019-03-08T10:26:21.033Z,728.00
2019-03-08T10:27:21.055Z,748.00
2019-03-08T10:28:21.079Z,776.00
2019-03-08T10:29:21.093Z,692.00
2019-03-08T10:30:21.117Z,696.00
2019-03-08T10:31:21.142Z,664.00
2019-03-08T10:32:21.164Z,620.00
2019-03-08T10:33:21.190Z,584.00
2019-03-08T10:34:21.214Z,1040.00
2019-03-08T10:35:24.062Z,1320.00
2019-03-08T10:36:21.254Z,1424.00
2019-03-08T10:37:21.285Z,2828.00
2019-03-08T10:38:22.970Z,1760.00
2019-03-08T10:39:21.316Z,6284.00
2019-03-08T10:40:21.339Z,3784.00
2019-03-08T10:41:21.357Z,1476.00
2019-03-08T10:42:21.385Z,1956.00
2019-03-08T10:43:21.404Z,1820.00
2019-03-08T10:44:21.438Z,2408.00
2019-03-08T10:45:21.454Z,1788.00
2019-03-08T10:46:21.481Z,2832.00
2019-03-08T10:47:21.492Z,9840.00
2019-03-08T10:48:21.522Z,4492.00
2019-03-08T10:49:21.540Z,3376.00
2019-03-08T10:50:21.562Z,4332.00
2019-03-08T10:51:21.589Z,3436.00
2019-03-08T10:52:21.657Z,1956.00
2019-03-08T10:53:21.638Z,1832.00
2019-03-08T10:54:21.674Z,1840.00
2019-03-08T10:55:21.692Z,2292.00
2019-03-08T10:56:21.697Z,1940.00
2019-03-08T10:57:21.712Z,2136.00
2019-03-08T10:58:21.744Z,1332.00
2019-03-08T10:59:21.767Z,1892.00
2019-03-08T11:00:21.790Z,1516.00
2019-03-08T11:01:21.823Z,1600.00
2019-03-08T11:02:21.877Z,2940.00
2019-03-08T11:03:21.857Z,1492.00
2019-03-08T11:04:21.875Z,4680.00
2019-03-08T11:05:21.931Z,1456.00
2019-03-08T11:06:21.924Z,1048.00
2019-03-08T11:07:21.944Z,1036.00
2019-03-08T11:08:29.558Z,564.00
2019-03-08T11:09:21.992Z,384.00
2019-03-08T11:10:22.060Z,364.00
2019-03-08T11:11:22.050Z,296.00
2019-03-08T11:12:22.084Z,288.00
2019-03-08T11:13:22.102Z,268.00
2019-03-08T11:14:22.110Z,244.00
2019-03-08T11:15:24.652Z,292.00
2019-03-08T11:16:22.163Z,324.00
2019-03-08T11:17:22.190Z,336.00
2019-03-08T11:18:22.204Z,320.00
2019-03-08T11:19:22.220Z,296.00
2019-03-08T11:20:22.242Z,284.00
2019-03-08T11:21:22.267Z,280.00
2019-03-08T11:22:22.284Z,256.00
2019-03-08T11:23:22.314Z,260.00
2019-03-08T11:24:22.345Z,312.00
2019-03-08T11:25:22.351Z,420.00
2019-03-08T11:26:22.377Z,624.00
2019-03-08T11:27:22.399Z,936.00
2019-03-08T11:28:22.430Z,776.00
2019-03-08T11:29:22.446Z,676.00
2019-03-08T11:30:22.466Z,496.00
2019-03-08T11:31:22.493Z,472.00
2019-03-08T11:32:23.432Z,504.00
2019-03-08T11:33:22.529Z,604.00
2019-03-08T11:34:22.556Z,588.00
2019-03-08T11:35:22.580Z,640.00
2019-03-08T11:36:22.594Z,880.00
2019-03-08T11:37:22.623Z,2460.00
2019-03-08T11:38:22.812Z,2180.00
2019-03-08T11:39:22.658Z,788.00
2019-03-08T11:40:22.686Z,360.00
2019-03-08T11:41:22.702Z,224.00
2019-03-08T11:42:22.725Z,232.00
2019-03-08T11:43:22.749Z,280.00
2019-03-08T11:44:22.773Z,292.00
2019-03-08T11:45:22.799Z,308.00
2019-03-08T11:46:22.818Z,312.00
2019-03-08T11:47:22.838Z,272.00
2019-03-08T11:48:22.889Z,240.00
2019-03-08T11:49:22.885Z,264.00
2019-03-08T11:50:22.896Z,284.00
2019-03-08T11:51:22.921Z,372.00
2019-03-08T11:52:22.947Z,472.00
2019-03-08T11:53:22.989Z,560.00
2019-03-08T11:54:22.999Z,848.00
2019-03-08T11:55:23.055Z,1572.00
2019-03-08T11:56:23.035Z,8976.00
2019-03-08T11:57:23.055Z,5584.00
2019-03-08T11:58:23.068Z,13172.00
2019-03-08T11:59:23.099Z,4984.00
2019-03-08T12:00:23.121Z,9664.00
2019-03-08T12:01:23.155Z,12664.00
2019-03-08T12:02:23.160Z,27136.00
2019-03-08T12:03:23.197Z,25248.00
2019-03-08T12:04:23.216Z,22656.00
2019-03-08T12:05:23.238Z,22080.00
2019-03-08T12:06:23.264Z,20576.00
2019-03-08T12:07:23.282Z,20064.00
2019-03-08T12:08:23.303Z,18848.00
2019-03-08T12:09:23.330Z,18976.00
2019-03-08T12:10:23.356Z,19360.00
2019-03-08T12:11:23.378Z,19936.00
2019-03-08T12:12:23.403Z,19936.00
2019-03-08T12:13:23.432Z,19232.00
2019-03-08T12:14:25.949Z,19616.00
2019-03-08T12:15:23.492Z,20736.00
2019-03-08T12:16:23.506Z,21696.00
2019-03-08T12:17:23.540Z,22432.00
2019-03-08T12:18:23.566Z,25920.00
2019-03-08T12:19:23.595Z,23744.00
2019-03-08T12:20:23.627Z,15392.00
2019-03-08T12:21:23.657Z,11572.00
2019-03-08T12:22:23.685Z,9784.00
2019-03-08T12:23:23.706Z,2608.00
2019-03-08T12:24:23.726Z,2744.00
2019-03-08T12:25:23.765Z,2804.00
2019-03-08T12:26:23.781Z,3980.00
2019-03-08T12:27:23.821Z,4044.00
2019-03-08T12:28:23.839Z,3204.00
2019-03-08T12:29:23.870Z,3100.00
2019-03-08T12:30:23.899Z,2660.00
2019-03-08T12:31:23.934Z,2876.00
2019-03-08T12:32:23.960Z,2396.00
2019-03-08T12:33:23.982Z,2048.00
2019-03-08T12:34:24.008Z,1960.00
2019-03-08T12:35:24.038Z,2112.00
2019-03-08T12:36:24.058Z,2376.00
2019-03-08T12:37:24.086Z,2512.00
2019-03-08T12:38:24.117Z,2100.00
2019-03-08T12:39:24.132Z,2192.00
2019-03-08T12:40:24.167Z,1904.00
2019-03-08T12:41:24.186Z,2200.00
2019-03-08T12:42:24.213Z,2076.00
2019-03-08T12:43:24.243Z,2376.00
2019-03-08T12:44:24.263Z,1928.00
2019-03-08T12:45:24.289Z,1768.00
2019-03-08T12:46:24.313Z,1792.00
2019-03-08T12:47:24.335Z,1520.00
2019-03-08T12:48:24.371Z,944.00
2019-03-08T12:49:24.393Z,1148.00
2019-03-08T12:50:24.405Z,1036.00
2019-03-08T12:51:24.435Z,932.00